sensor_id;sensor_type;location;lat;lon;timestamp;temperature;humidity
24814;DHT22;12904;50.088;11.414;2023-05-23T00:00:25;16.60;99.90
24814;DHT22;12904;50.088;11.414;2023-05-23T00:02:51;16.60;99.90
24814;DHT22;12904;50.088;11.414;2023-05-23T00:05:17;16.60;99.90
24814;DHT22;12904;50.088;11.414;2023-05-23T00:07:46;16.60;99.90
24814;DHT22;12904;50.088;11.414;2023-05-23T00:10:13;16.60;99.90
24814;DHT22;12904;50.088;11.414;2023-05-23T00:12:38;16.60;99.90
24814;DHT22;12904;50.088;11.414;2023-05-23T00:15:07;16.60;99.90
24814;DHT22;12904;50.088;11.414;2023-05-23T00:17:34;16.60;99.90
24814;DHT22;12904;50.088;11.414;2023-05-23T00:20:02;16.60;99.90
24814;DHT22;12904;50.088;11.414;2023-05-23T00:22:28;16.60;99.90
24814;DHT22;12904;50.088;11.414;2023-05-23T00:24:54;16.60;99.90
24814;DHT22;12904;50.088;11.414;2023-05-23T00:27:22;16.60;99.90
24814;DHT22;12904;50.088;11.414;2023-05-23T00:29:48;16.60;99.90
24814;DHT22;12904;50.088;11.414;2023-05-23T00:32:13;16.60;99.90
24814;DHT22;12904;50.088;11.414;2023-05-23T00:34:39;16.60;99.90
24814;DHT22;12904;50.088;11.414;2023-05-23T00:37:05;16.60;99.90
24814;DHT22;12904;50.088;11.414;2023-05-23T00:39:30;16.50;99.90
24814;DHT22;12904;50.088;11.414;2023-05-23T00:41:56;16.50;99.90
24814;DHT22;12904;50.088;11.414;2023-05-23T00:44:22;16.50;99.90
24814;DHT22;12904;50.088;11.414;2023-05-23T00:46:53;16.50;99.90
24814;DHT22;12904;50.088;11.414;2023-05-23T00:49:20;16.50;99.90
24814;DHT22;12904;50.088;11.414;2023-05-23T00:51:46;16.50;99.90
24814;DHT22;12904;50.088;11.414;2023-05-23T00:54:14;16.50;99.90
24814;DHT22;12904;50.088;11.414;2023-05-23T00:56:41;16.50;99.90
24814;DHT22;12904;50.088;11.414;2023-05-23T00:59:08;16.40;99.90
24814;DHT22;12904;50.088;11.414;2023-05-23T01:01:34;16.40;99.90
24814;DHT22;12904;50.088;11.414;2023-05-23T01:04:02;16.40;99.90
24814;DHT22;12904;50.088;11.414;2023-05-23T01:06:29;16.40;99.90
24814;DHT22;12904;50.088;11.414;2023-05-23T01:08:55;16.40;99.90
24814;DHT22;12904;50.088;11.414;2023-05-23T01:11:32;16.40;99.90
24814;DHT22;12904;50.088;11.414;2023-05-23T01:14:11;16.40;99.90
24814;DHT22;12904;50.088;11.414;2023-05-23T01:21:59;16.30;99.90
24814;DHT22;12904;50.088;11.414;2023-05-23T01:29:44;16.20;99.90
24814;DHT22;12904;50.088;11.414;2023-05-23T01:32:11;16.10;99.90
24814;DHT22;12904;50.088;11.414;2023-05-23T01:34:39;16.10;99.90
24814;DHT22;12904;50.088;11.414;2023-05-23T01:37:09;16.10;99.90
24814;DHT22;12904;50.088;11.414;2023-05-23T01:39:36;16.10;99.90
24814;DHT22;12904;50.088;11.414;2023-05-23T01:42:02;16.10;99.90
24814;DHT22;12904;50.088;11.414;2023-05-23T01:44:29;16.10;99.90
24814;DHT22;12904;50.088;11.414;2023-05-23T01:46:55;16.10;99.90
24814;DHT22;12904;50.088;11.414;2023-05-23T01:49:22;16.10;99.90
24814;DHT22;12904;50.088;11.414;2023-05-23T01:51:49;16.10;99.90
24814;DHT22;12904;50.088;11.414;2023-05-23T01:54:15;16.10;99.90
24814;DHT22;12904;50.088;11.414;2023-05-23T01:56:42;16.10;99.90
24814;DHT22;12904;50.088;11.414;2023-05-23T01:59:08;16.10;99.90
24814;DHT22;12904;50.088;11.414;2023-05-23T02:01:33;16.10;99.90
24814;DHT22;12904;50.088;11.414;2023-05-23T02:03:59;16.20;99.90
24814;DHT22;12904;50.088;11.414;2023-05-23T02:06:26;16.20;99.90
24814;DHT22;12904;50.088;11.414;2023-05-23T02:08:51;16.20;99.90
24814;DHT22;12904;50.088;11.414;2023-05-23T02:11:17;16.20;99.90
24814;DHT22;12904;50.088;11.414;2023-05-23T02:13:42;16.10;99.90
24814;DHT22;12904;50.088;11.414;2023-05-23T02:16:08;16.10;99.90
24814;DHT22;12904;50.088;11.414;2023-05-23T02:18:34;16.10;99.90
24814;DHT22;12904;50.088;11.414;2023-05-23T02:21:03;16.00;99.90
24814;DHT22;12904;50.088;11.414;2023-05-23T02:23:29;16.00;99.90
24814;DHT22;12904;50.088;11.414;2023-05-23T02:25:55;16.00;99.90
24814;DHT22;12904;50.088;11.414;2023-05-23T02:28:20;16.00;99.90
24814;DHT22;12904;50.088;11.414;2023-05-23T02:30:46;16.00;99.90
24814;DHT22;12904;50.088;11.414;2023-05-23T02:33:12;15.90;99.90
24814;DHT22;12904;50.088;11.414;2023-05-23T02:35:38;15.90;99.90
24814;DHT22;12904;50.088;11.414;2023-05-23T02:38:04;15.90;99.90
24814;DHT22;12904;50.088;11.414;2023-05-23T02:40:30;15.90;99.90
24814;DHT22;12904;50.088;11.414;2023-05-23T02:42:55;15.80;99.90
24814;DHT22;12904;50.088;11.414;2023-05-23T02:45:22;15.80;99.90
24814;DHT22;12904;50.088;11.414;2023-05-23T02:47:48;15.80;99.90
24814;DHT22;12904;50.088;11.414;2023-05-23T02:50:13;15.70;99.90
24814;DHT22;12904;50.088;11.414;2023-05-23T02:52:39;15.70;99.90
24814;DHT22;12904;50.088;11.414;2023-05-23T02:55:07;15.60;99.90
24814;DHT22;12904;50.088;11.414;2023-05-23T02:57:32;15.50;99.90
24814;DHT22;12904;50.088;11.414;2023-05-23T02:59:58;15.50;99.90
24814;DHT22;12904;50.088;11.414;2023-05-23T03:02:24;15.50;99.90
24814;DHT22;12904;50.088;11.414;2023-05-23T03:04:50;15.40;99.90
24814;DHT22;12904;50.088;11.414;2023-05-23T03:07:15;15.40;99.90
24814;DHT22;12904;50.088;11.414;2023-05-23T03:09:41;15.40;99.90
24814;DHT22;12904;50.088;11.414;2023-05-23T03:12:07;15.30;99.90
24814;DHT22;12904;50.088;11.414;2023-05-23T03:14:32;15.30;99.90
24814;DHT22;12904;50.088;11.414;2023-05-23T03:16:58;15.20;99.90
24814;DHT22;12904;50.088;11.414;2023-05-23T03:19:24;15.20;99.90
24814;DHT22;12904;50.088;11.414;2023-05-23T03:21:50;15.20;99.90
24814;DHT22;12904;50.088;11.414;2023-05-23T03:24:16;15.20;99.90
24814;DHT22;12904;50.088;11.414;2023-05-23T03:26:42;15.20;99.90
24814;DHT22;12904;50.088;11.414;2023-05-23T03:29:08;15.30;99.90
24814;DHT22;12904;50.088;11.414;2023-05-23T03:31:35;15.30;99.90
24814;DHT22;12904;50.088;11.414;2023-05-23T03:34:02;15.30;99.90
24814;DHT22;12904;50.088;11.414;2023-05-23T03:36:30;15.40;99.90
24814;DHT22;12904;50.088;11.414;2023-05-23T03:38:57;15.40;99.90
24814;DHT22;12904;50.088;11.414;2023-05-23T03:41:23;15.40;99.90
24814;DHT22;12904;50.088;11.414;2023-05-23T03:43:48;15.50;99.90
24814;DHT22;12904;50.088;11.414;2023-05-23T03:46:14;15.50;99.90
24814;DHT22;12904;50.088;11.414;2023-05-23T03:48:40;15.60;99.90
24814;DHT22;12904;50.088;11.414;2023-05-23T03:51:05;15.60;99.90
24814;DHT22;12904;50.088;11.414;2023-05-23T03:53:31;15.60;99.90
24814;DHT22;12904;50.088;11.414;2023-05-23T03:55:57;15.60;99.90
24814;DHT22;12904;50.088;11.414;2023-05-23T03:58:22;15.70;99.90
24814;DHT22;12904;50.088;11.414;2023-05-23T04:00:48;15.70;99.90
24814;DHT22;12904;50.088;11.414;2023-05-23T04:03:15;15.70;99.90
24814;DHT22;12904;50.088;11.414;2023-05-23T04:05:42;15.80;99.90
24814;DHT22;12904;50.088;11.414;2023-05-23T04:08:07;15.80;99.90
24814;DHT22;12904;50.088;11.414;2023-05-23T04:10:34;15.90;99.90
24814;DHT22;12904;50.088;11.414;2023-05-23T04:12:59;15.90;99.90
24814;DHT22;12904;50.088;11.414;2023-05-23T04:15:25;16.00;99.90
24814;DHT22;12904;50.088;11.414;2023-05-23T04:17:52;16.00;99.90
24814;DHT22;12904;50.088;11.414;2023-05-23T04:20:18;16.00;99.90
24814;DHT22;12904;50.088;11.414;2023-05-23T04:22:44;16.00;99.90
24814;DHT22;12904;50.088;11.414;2023-05-23T04:25:09;16.10;99.90
24814;DHT22;12904;50.088;11.414;2023-05-23T04:27:36;16.10;99.90
24814;DHT22;12904;50.088;11.414;2023-05-23T04:30:05;16.10;99.90
24814;DHT22;12904;50.088;11.414;2023-05-23T04:32:32;16.20;99.90
24814;DHT22;12904;50.088;11.414;2023-05-23T04:34:58;16.20;99.90
24814;DHT22;12904;50.088;11.414;2023-05-23T04:37:26;16.20;99.90
24814;DHT22;12904;50.088;11.414;2023-05-23T04:39:53;16.20;99.90
24814;DHT22;12904;50.088;11.414;2023-05-23T04:42:19;16.20;99.90
24814;DHT22;12904;50.088;11.414;2023-05-23T04:44:49;16.30;99.90
24814;DHT22;12904;50.088;11.414;2023-05-23T04:47:15;16.30;99.90
24814;DHT22;12904;50.088;11.414;2023-05-23T04:49:41;16.40;99.90
24814;DHT22;12904;50.088;11.414;2023-05-23T04:52:07;16.40;99.90
24814;DHT22;12904;50.088;11.414;2023-05-23T04:54:33;16.50;99.90
24814;DHT22;12904;50.088;11.414;2023-05-23T04:56:58;16.60;99.90
24814;DHT22;12904;50.088;11.414;2023-05-23T04:59:24;16.60;99.90
24814;DHT22;12904;50.088;11.414;2023-05-23T05:01:50;16.70;99.90
24814;DHT22;12904;50.088;11.414;2023-05-23T05:04:15;16.70;99.90
24814;DHT22;12904;50.088;11.414;2023-05-23T05:06:41;16.80;99.90
24814;DHT22;12904;50.088;11.414;2023-05-23T05:09:06;16.80;99.90
24814;DHT22;12904;50.088;11.414;2023-05-23T05:11:32;16.90;99.90
24814;DHT22;12904;50.088;11.414;2023-05-23T05:13:58;16.90;99.90
24814;DHT22;12904;50.088;11.414;2023-05-23T05:16:23;16.90;99.90
24814;DHT22;12904;50.088;11.414;2023-05-23T05:18:49;17.00;99.90
24814;DHT22;12904;50.088;11.414;2023-05-23T05:21:15;17.00;99.90
24814;DHT22;12904;50.088;11.414;2023-05-23T05:23:41;17.00;99.90
24814;DHT22;12904;50.088;11.414;2023-05-23T05:26:08;17.10;99.90
24814;DHT22;12904;50.088;11.414;2023-05-23T05:28:33;17.10;99.90
24814;DHT22;12904;50.088;11.414;2023-05-23T05:30:59;17.00;99.90
24814;DHT22;12904;50.088;11.414;2023-05-23T05:33:29;17.10;99.90
24814;DHT22;12904;50.088;11.414;2023-05-23T05:36:04;17.10;99.90
24814;DHT22;12904;50.088;11.414;2023-05-23T05:38:30;17.10;99.90
24814;DHT22;12904;50.088;11.414;2023-05-23T05:40:56;17.10;99.90
24814;DHT22;12904;50.088;11.414;2023-05-23T05:43:22;17.10;99.90
24814;DHT22;12904;50.088;11.414;2023-05-23T05:45:47;17.10;99.90
24814;DHT22;12904;50.088;11.414;2023-05-23T05:48:13;17.10;99.90
24814;DHT22;12904;50.088;11.414;2023-05-23T05:50:39;17.20;99.90
24814;DHT22;12904;50.088;11.414;2023-05-23T05:53:04;17.30;99.90
24814;DHT22;12904;50.088;11.414;2023-05-23T05:55:32;17.50;99.90
24814;DHT22;12904;50.088;11.414;2023-05-23T05:57:58;17.60;99.90
24814;DHT22;12904;50.088;11.414;2023-05-23T06:00:24;17.70;99.90
24814;DHT22;12904;50.088;11.414;2023-05-23T06:02:49;17.70;99.90
24814;DHT22;12904;50.088;11.414;2023-05-23T06:05:22;17.80;99.90
24814;DHT22;12904;50.088;11.414;2023-05-23T06:07:48;17.90;99.90
24814;DHT22;12904;50.088;11.414;2023-05-23T06:10:14;17.90;99.90
24814;DHT22;12904;50.088;11.414;2023-05-23T06:12:40;18.00;99.90
24814;DHT22;12904;50.088;11.414;2023-05-23T06:15:07;18.30;99.90
24814;DHT22;12904;50.088;11.414;2023-05-23T06:17:34;18.40;99.90
24814;DHT22;12904;50.088;11.414;2023-05-23T06:20:00;18.40;99.90
24814;DHT22;12904;50.088;11.414;2023-05-23T06:22:25;18.50;99.90
24814;DHT22;12904;50.088;11.414;2023-05-23T06:24:51;18.60;99.90
24814;DHT22;12904;50.088;11.414;2023-05-23T06:27:16;18.70;99.90
24814;DHT22;12904;50.088;11.414;2023-05-23T06:29:42;18.70;99.90
24814;DHT22;12904;50.088;11.414;2023-05-23T06:32:08;18.80;99.90
24814;DHT22;12904;50.088;11.414;2023-05-23T06:34:33;18.80;99.90
24814;DHT22;12904;50.088;11.414;2023-05-23T06:36:59;18.80;99.90
24814;DHT22;12904;50.088;11.414;2023-05-23T06:39:25;18.80;99.90
24814;DHT22;12904;50.088;11.414;2023-05-23T06:41:50;18.80;99.90
24814;DHT22;12904;50.088;11.414;2023-05-23T06:44:16;18.90;99.90
24814;DHT22;12904;50.088;11.414;2023-05-23T06:46:44;18.80;99.90
24814;DHT22;12904;50.088;11.414;2023-05-23T06:49:09;18.80;99.90
24814;DHT22;12904;50.088;11.414;2023-05-23T06:51:35;18.80;99.90
24814;DHT22;12904;50.088;11.414;2023-05-23T06:54:01;18.80;99.90
24814;DHT22;12904;50.088;11.414;2023-05-23T06:56:26;18.80;99.90
24814;DHT22;12904;50.088;11.414;2023-05-23T06:58:52;18.80;99.90
24814;DHT22;12904;50.088;11.414;2023-05-23T07:01:18;18.80;99.90
24814;DHT22;12904;50.088;11.414;2023-05-23T07:03:43;18.70;99.90
24814;DHT22;12904;50.088;11.414;2023-05-23T07:06:10;18.60;99.90
24814;DHT22;12904;50.088;11.414;2023-05-23T07:08:37;18.50;99.90
24814;DHT22;12904;50.088;11.414;2023-05-23T07:11:03;18.40;99.90
24814;DHT22;12904;50.088;11.414;2023-05-23T07:13:29;18.40;99.90
24814;DHT22;12904;50.088;11.414;2023-05-23T07:15:55;18.40;99.90
24814;DHT22;12904;50.088;11.414;2023-05-23T07:18:20;18.40;99.90
24814;DHT22;12904;50.088;11.414;2023-05-23T07:20:46;18.60;99.90
24814;DHT22;12904;50.088;11.414;2023-05-23T07:23:12;18.80;99.90
24814;DHT22;12904;50.088;11.414;2023-05-23T07:25:37;18.90;99.90
24814;DHT22;12904;50.088;11.414;2023-05-23T07:28:04;18.90;99.90
24814;DHT22;12904;50.088;11.414;2023-05-23T07:30:30;19.00;99.90
24814;DHT22;12904;50.088;11.414;2023-05-23T07:32:56;19.10;99.90
24814;DHT22;12904;50.088;11.414;2023-05-23T07:35:22;19.10;99.90
24814;DHT22;12904;50.088;11.414;2023-05-23T07:37:54;19.20;99.90
24814;DHT22;12904;50.088;11.414;2023-05-23T07:40:21;19.20;99.90
24814;DHT22;12904;50.088;11.414;2023-05-23T07:42:46;19.30;99.90
24814;DHT22;12904;50.088;11.414;2023-05-23T07:45:12;19.30;99.90
24814;DHT22;12904;50.088;11.414;2023-05-23T07:47:38;19.40;99.90
24814;DHT22;12904;50.088;11.414;2023-05-23T07:50:04;19.50;99.90
24814;DHT22;12904;50.088;11.414;2023-05-23T07:52:31;19.60;99.90
24814;DHT22;12904;50.088;11.414;2023-05-23T07:54:57;19.60;99.90
24814;DHT22;12904;50.088;11.414;2023-05-23T07:57:22;19.60;99.90
24814;DHT22;12904;50.088;11.414;2023-05-23T07:59:52;19.60;99.90
24814;DHT22;12904;50.088;11.414;2023-05-23T08:02:18;19.50;99.90
24814;DHT22;12904;50.088;11.414;2023-05-23T08:04:45;19.40;99.90
24814;DHT22;12904;50.088;11.414;2023-05-23T08:07:11;19.30;99.90
24814;DHT22;12904;50.088;11.414;2023-05-23T08:09:38;19.20;99.90
24814;DHT22;12904;50.088;11.414;2023-05-23T08:12:05;19.10;99.90
24814;DHT22;12904;50.088;11.414;2023-05-23T08:14:31;19.10;99.90
24814;DHT22;12904;50.088;11.414;2023-05-23T08:16:56;19.10;99.90
24814;DHT22;12904;50.088;11.414;2023-05-23T08:19:22;19.00;99.90
24814;DHT22;12904;50.088;11.414;2023-05-23T08:21:48;19.10;99.90
24814;DHT22;12904;50.088;11.414;2023-05-23T08:24:13;19.20;99.90
24814;DHT22;12904;50.088;11.414;2023-05-23T08:26:39;19.20;99.90
24814;DHT22;12904;50.088;11.414;2023-05-23T08:29:06;19.20;99.90
24814;DHT22;12904;50.088;11.414;2023-05-23T08:31:34;19.00;99.90
24814;DHT22;12904;50.088;11.414;2023-05-23T08:33:59;19.00;99.90
24814;DHT22;12904;50.088;11.414;2023-05-23T08:36:25;18.90;99.90
24814;DHT22;12904;50.088;11.414;2023-05-23T08:38:51;18.80;99.90
24814;DHT22;12904;50.088;11.414;2023-05-23T08:41:23;18.80;99.90
24814;DHT22;12904;50.088;11.414;2023-05-23T08:43:49;18.70;99.90
24814;DHT22;12904;50.088;11.414;2023-05-23T08:46:15;18.70;99.90
24814;DHT22;12904;50.088;11.414;2023-05-23T08:48:42;18.80;99.90
24814;DHT22;12904;50.088;11.414;2023-05-23T08:51:13;18.80;99.90
24814;DHT22;12904;50.088;11.414;2023-05-23T08:53:41;18.90;99.90
24814;DHT22;12904;50.088;11.414;2023-05-23T08:56:09;19.00;99.90
24814;DHT22;12904;50.088;11.414;2023-05-23T08:58:35;19.10;99.90
24814;DHT22;12904;50.088;11.414;2023-05-23T09:01:03;19.30;99.90
24814;DHT22;12904;50.088;11.414;2023-05-23T09:03:29;19.40;99.90
24814;DHT22;12904;50.088;11.414;2023-05-23T09:05:54;19.50;99.90
24814;DHT22;12904;50.088;11.414;2023-05-23T09:08:21;19.50;99.90
24814;DHT22;12904;50.088;11.414;2023-05-23T09:10:48;19.40;99.90
24814;DHT22;12904;50.088;11.414;2023-05-23T09:13:16;19.40;99.90
24814;DHT22;12904;50.088;11.414;2023-05-23T09:16:03;19.50;99.90
24814;DHT22;12904;50.088;11.414;2023-05-23T09:18:40;19.70;99.90
24814;DHT22;12904;50.088;11.414;2023-05-23T09:21:10;19.70;99.90
24814;DHT22;12904;50.088;11.414;2023-05-23T09:23:38;19.80;99.90
24814;DHT22;12904;50.088;11.414;2023-05-23T09:26:09;19.90;99.90
24814;DHT22;12904;50.088;11.414;2023-05-23T09:28:36;19.90;99.90
24814;DHT22;12904;50.088;11.414;2023-05-23T09:31:04;19.90;99.90
24814;DHT22;12904;50.088;11.414;2023-05-23T09:33:46;19.80;99.50
24814;DHT22;12904;50.088;11.414;2023-05-23T09:36:12;19.70;99.40
24814;DHT22;12904;50.088;11.414;2023-05-23T09:38:39;19.50;99.80
24814;DHT22;12904;50.088;11.414;2023-05-23T09:41:05;19.40;99.90
24814;DHT22;12904;50.088;11.414;2023-05-23T09:43:31;19.30;99.90
24814;DHT22;12904;50.088;11.414;2023-05-23T09:46:03;19.40;99.90
24814;DHT22;12904;50.088;11.414;2023-05-23T09:48:31;19.50;98.70
24814;DHT22;12904;50.088;11.414;2023-05-23T09:50:57;19.60;98.20
24814;DHT22;12904;50.088;11.414;2023-05-23T09:53:23;19.70;98.30
24814;DHT22;12904;50.088;11.414;2023-05-23T09:55:53;19.90;97.90
24814;DHT22;12904;50.088;11.414;2023-05-23T09:58:19;20.20;98.20
24814;DHT22;12904;50.088;11.414;2023-05-23T10:00:49;20.50;96.40
24814;DHT22;12904;50.088;11.414;2023-05-23T10:03:21;20.60;95.30
24814;DHT22;12904;50.088;11.414;2023-05-23T10:05:48;20.60;94.90
24814;DHT22;12904;50.088;11.414;2023-05-23T10:13:24;20.30;94.90
24814;DHT22;12904;50.088;11.414;2023-05-23T10:15:57;20.10;94.80
24814;DHT22;12904;50.088;11.414;2023-05-23T10:18:28;20.00;96.20
24814;DHT22;12904;50.088;11.414;2023-05-23T10:20:56;20.10;97.20
24814;DHT22;12904;50.088;11.414;2023-05-23T10:23:27;20.30;95.30
24814;DHT22;12904;50.088;11.414;2023-05-23T10:25:53;20.50;95.20
24814;DHT22;12904;50.088;11.414;2023-05-23T10:28:19;20.80;96.50
24814;DHT22;12904;50.088;11.414;2023-05-23T10:30:45;21.10;93.90
24814;DHT22;12904;50.088;11.414;2023-05-23T10:33:13;21.20;94.30
24814;DHT22;12904;50.088;11.414;2023-05-23T10:35:56;21.60;93.50
24814;DHT22;12904;50.088;11.414;2023-05-23T10:38:37;21.90;92.50
24814;DHT22;12904;50.088;11.414;2023-05-23T10:41:10;21.90;91.00
24814;DHT22;12904;50.088;11.414;2023-05-23T10:43:46;22.00;89.50
24814;DHT22;12904;50.088;11.414;2023-05-23T10:46:13;21.90;88.90
24814;DHT22;12904;50.088;11.414;2023-05-23T10:48:41;21.80;90.00
24814;DHT22;12904;50.088;11.414;2023-05-23T10:51:12;21.60;90.60
24814;DHT22;12904;50.088;11.414;2023-05-23T10:53:44;21.30;90.40
24814;DHT22;12904;50.088;11.414;2023-05-23T10:56:10;21.20;90.50
24814;DHT22;12904;50.088;11.414;2023-05-23T10:58:43;21.10;90.90
24814;DHT22;12904;50.088;11.414;2023-05-23T11:01:12;21.00;90.40
24814;DHT22;12904;50.088;11.414;2023-05-23T11:09:17;21.00;90.80
24814;DHT22;12904;50.088;11.414;2023-05-23T11:14:19;20.90;91.70
24814;DHT22;12904;50.088;11.414;2023-05-23T11:16:45;20.80;91.40
24814;DHT22;12904;50.088;11.414;2023-05-23T11:21:44;20.60;90.70
24814;DHT22;12904;50.088;11.414;2023-05-23T11:24:09;20.50;91.40
24814;DHT22;12904;50.088;11.414;2023-05-23T11:26:35;20.40;91.60
24814;DHT22;12904;50.088;11.414;2023-05-23T11:29:01;20.30;92.30
24814;DHT22;12904;50.088;11.414;2023-05-23T11:31:28;20.20;92.20
24814;DHT22;12904;50.088;11.414;2023-05-23T11:33:55;20.00;92.50
24814;DHT22;12904;50.088;11.414;2023-05-23T11:36:21;20.00;92.00
24814;DHT22;12904;50.088;11.414;2023-05-23T11:38:51;19.90;93.00
24814;DHT22;12904;50.088;11.414;2023-05-23T11:41:17;20.10;92.10
24814;DHT22;12904;50.088;11.414;2023-05-23T11:43:50;20.20;92.00
24814;DHT22;12904;50.088;11.414;2023-05-23T11:46:16;20.30;91.80
24814;DHT22;12904;50.088;11.414;2023-05-23T11:48:45;20.40;92.30
24814;DHT22;12904;50.088;11.414;2023-05-23T11:51:12;20.50;91.60
24814;DHT22;12904;50.088;11.414;2023-05-23T11:53:37;20.50;92.10
24814;DHT22;12904;50.088;11.414;2023-05-23T11:56:03;20.50;91.00
24814;DHT22;12904;50.088;11.414;2023-05-23T11:58:34;20.60;91.00
24814;DHT22;12904;50.088;11.414;2023-05-23T12:01:04;20.80;91.00
24814;DHT22;12904;50.088;11.414;2023-05-23T12:03:47;21.10;92.10
24814;DHT22;12904;50.088;11.414;2023-05-23T12:06:20;21.50;92.50
24814;DHT22;12904;50.088;11.414;2023-05-23T12:08:46;21.80;89.90
24814;DHT22;12904;50.088;11.414;2023-05-23T12:11:12;21.90;90.00
24814;DHT22;12904;50.088;11.414;2023-05-23T12:13:40;21.90;88.40
24814;DHT22;12904;50.088;11.414;2023-05-23T12:16:06;22.00;87.80
24814;DHT22;12904;50.088;11.414;2023-05-23T12:18:32;22.10;87.30
24814;DHT22;12904;50.088;11.414;2023-05-23T12:21:05;22.10;86.70
24814;DHT22;12904;50.088;11.414;2023-05-23T12:23:33;22.00;87.00
24814;DHT22;12904;50.088;11.414;2023-05-23T12:26:03;21.90;85.60
24814;DHT22;12904;50.088;11.414;2023-05-23T12:28:39;21.70;88.80
24814;DHT22;12904;50.088;11.414;2023-05-23T12:31:27;21.40;89.20
24814;DHT22;12904;50.088;11.414;2023-05-23T12:33:53;21.10;91.00
24814;DHT22;12904;50.088;11.414;2023-05-23T12:36:26;20.80;90.60
24814;DHT22;12904;50.088;11.414;2023-05-23T12:39:01;20.50;91.90
24814;DHT22;12904;50.088;11.414;2023-05-23T12:41:27;20.30;91.50
24814;DHT22;12904;50.088;11.414;2023-05-23T12:43:54;20.10;92.40
24814;DHT22;12904;50.088;11.414;2023-05-23T12:46:21;19.90;92.80
24814;DHT22;12904;50.088;11.414;2023-05-23T12:48:47;19.70;92.90
24814;DHT22;12904;50.088;11.414;2023-05-23T12:51:13;19.40;92.90
24814;DHT22;12904;50.088;11.414;2023-05-23T12:53:38;19.20;94.30
24814;DHT22;12904;50.088;11.414;2023-05-23T12:56:04;18.90;94.40
24814;DHT22;12904;50.088;11.414;2023-05-23T12:58:30;18.80;94.80
24814;DHT22;12904;50.088;11.414;2023-05-23T13:00:57;18.60;95.20
24814;DHT22;12904;50.088;11.414;2023-05-23T13:03:23;18.50;95.80
24814;DHT22;12904;50.088;11.414;2023-05-23T13:05:49;18.40;95.90
24814;DHT22;12904;50.088;11.414;2023-05-23T13:08:15;18.30;96.40
24814;DHT22;12904;50.088;11.414;2023-05-23T13:10:42;18.40;98.00
24814;DHT22;12904;50.088;11.414;2023-05-23T13:13:07;18.50;97.60
24814;DHT22;12904;50.088;11.414;2023-05-23T13:15:33;18.50;97.30
24814;DHT22;12904;50.088;11.414;2023-05-23T13:17:59;18.50;97.70
24814;DHT22;12904;50.088;11.414;2023-05-23T13:20:24;18.60;98.10
24814;DHT22;12904;50.088;11.414;2023-05-23T13:22:57;18.70;97.90
24814;DHT22;12904;50.088;11.414;2023-05-23T13:25:24;18.90;97.50
24814;DHT22;12904;50.088;11.414;2023-05-23T13:27:50;19.10;97.90
24814;DHT22;12904;50.088;11.414;2023-05-23T13:30:18;19.30;97.40
24814;DHT22;12904;50.088;11.414;2023-05-23T13:32:44;19.30;97.10
24814;DHT22;12904;50.088;11.414;2023-05-23T13:35:09;19.30;97.20
24814;DHT22;12904;50.088;11.414;2023-05-23T13:37:35;19.30;97.90
24814;DHT22;12904;50.088;11.414;2023-05-23T13:40:01;19.30;96.60
24814;DHT22;12904;50.088;11.414;2023-05-23T13:42:28;19.30;97.10
24814;DHT22;12904;50.088;11.414;2023-05-23T13:44:54;19.30;97.80
24814;DHT22;12904;50.088;11.414;2023-05-23T13:47:20;19.30;97.00
24814;DHT22;12904;50.088;11.414;2023-05-23T13:49:45;19.20;96.90
24814;DHT22;12904;50.088;11.414;2023-05-23T13:52:12;19.20;96.60
24814;DHT22;12904;50.088;11.414;2023-05-23T13:54:37;19.20;96.20
24814;DHT22;12904;50.088;11.414;2023-05-23T13:57:03;19.20;97.30
24814;DHT22;12904;50.088;11.414;2023-05-23T13:59:29;19.30;97.20
24814;DHT22;12904;50.088;11.414;2023-05-23T14:01:55;19.50;97.20
24814;DHT22;12904;50.088;11.414;2023-05-23T14:04:20;19.70;97.10
24814;DHT22;12904;50.088;11.414;2023-05-23T14:06:47;19.90;97.00
24814;DHT22;12904;50.088;11.414;2023-05-23T14:09:13;20.20;96.20
24814;DHT22;12904;50.088;11.414;2023-05-23T14:11:38;20.40;94.40
24814;DHT22;12904;50.088;11.414;2023-05-23T14:14:04;20.30;95.50
24814;DHT22;12904;50.088;11.414;2023-05-23T14:16:30;20.20;95.70
24814;DHT22;12904;50.088;11.414;2023-05-23T14:18:56;19.90;95.30
24814;DHT22;12904;50.088;11.414;2023-05-23T14:21:22;19.60;95.50
24814;DHT22;12904;50.088;11.414;2023-05-23T14:23:48;19.50;96.00
24814;DHT22;12904;50.088;11.414;2023-05-23T14:26:13;19.20;96.10
24814;DHT22;12904;50.088;11.414;2023-05-23T14:28:39;19.20;96.60
24814;DHT22;12904;50.088;11.414;2023-05-23T14:31:05;19.20;97.30
24814;DHT22;12904;50.088;11.414;2023-05-23T14:33:31;19.30;97.70
24814;DHT22;12904;50.088;11.414;2023-05-23T14:35:57;19.50;98.10
24814;DHT22;12904;50.088;11.414;2023-05-23T14:38:23;19.80;97.80
24814;DHT22;12904;50.088;11.414;2023-05-23T14:40:48;20.10;96.80
24814;DHT22;12904;50.088;11.414;2023-05-23T14:43:14;20.40;96.60
24814;DHT22;12904;50.088;11.414;2023-05-23T14:45:40;20.50;95.30
24814;DHT22;12904;50.088;11.414;2023-05-23T14:48:06;20.40;95.00
24814;DHT22;12904;50.088;11.414;2023-05-23T14:50:32;20.40;95.60
24814;DHT22;12904;50.088;11.414;2023-05-23T14:52:58;20.10;95.80
24814;DHT22;12904;50.088;11.414;2023-05-23T14:55:24;20.00;96.10
24814;DHT22;12904;50.088;11.414;2023-05-23T14:57:50;19.80;96.10
24814;DHT22;12904;50.088;11.414;2023-05-23T15:00:16;19.60;95.90
24814;DHT22;12904;50.088;11.414;2023-05-23T15:02:42;19.20;96.60
24814;DHT22;12904;50.088;11.414;2023-05-23T15:05:08;18.90;97.80
24814;DHT22;12904;50.088;11.414;2023-05-23T15:07:34;18.70;99.40
24814;DHT22;12904;50.088;11.414;2023-05-23T15:10:00;18.50;99.90
24814;DHT22;12904;50.088;11.414;2023-05-23T15:12:27;18.50;99.90
24814;DHT22;12904;50.088;11.414;2023-05-23T15:14:53;18.40;99.90
24814;DHT22;12904;50.088;11.414;2023-05-23T15:17:18;18.30;99.90
24814;DHT22;12904;50.088;11.414;2023-05-23T15:19:46;18.20;99.90
24814;DHT22;12904;50.088;11.414;2023-05-23T15:22:12;18.10;99.90
24814;DHT22;12904;50.088;11.414;2023-05-23T15:24:38;17.90;99.90
24814;DHT22;12904;50.088;11.414;2023-05-23T15:27:04;17.80;99.90
24814;DHT22;12904;50.088;11.414;2023-05-23T15:29:29;17.70;99.90
24814;DHT22;12904;50.088;11.414;2023-05-23T15:31:57;17.60;99.90
24814;DHT22;12904;50.088;11.414;2023-05-23T15:34:23;17.40;99.90
24814;DHT22;12904;50.088;11.414;2023-05-23T15:36:48;17.20;99.90
24814;DHT22;12904;50.088;11.414;2023-05-23T15:39:15;17.10;99.90